sensor_id;sensor_type;location;lat;lon;timestamp;P1;durP1;ratioP1;P2;durP2;ratioP2
59938;SDS011;45801;51.810;19.444;2023-02-03T00:00:11;6.80;;;2.50;;
59938;SDS011;45801;51.810;19.444;2023-02-03T00:06:27;6.90;;;2.40;;
59938;SDS011;45801;51.810;19.444;2023-02-03T00:08:56;5.60;;;2.10;;
59938;SDS011;45801;51.810;19.444;2023-02-03T00:11:24;5.80;;;2.00;;
59938;SDS011;45801;51.810;19.444;2023-02-03T00:13:53;5.00;;;1.90;;
59938;SDS011;45801;51.810;19.444;2023-02-03T00:16:19;6.90;;;2.20;;
59938;SDS011;45801;51.810;19.444;2023-02-03T00:18:46;5.90;;;2.40;;
59938;SDS011;45801;51.810;19.444;2023-02-03T00:21:12;6.60;;;2.30;;
59938;SDS011;45801;51.810;19.444;2023-02-03T00:23:40;7.30;;;2.70;;
59938;SDS011;45801;51.810;19.444;2023-02-03T00:26:11;6.00;;;2.00;;
59938;SDS011;45801;51.810;19.444;2023-02-03T00:28:39;7.10;;;2.50;;
59938;SDS011;45801;51.810;19.444;2023-02-03T00:31:13;5.40;;;2.50;;
59938;SDS011;45801;51.810;19.444;2023-02-03T00:33:45;3.80;;;1.40;;
59938;SDS011;45801;51.810;19.444;2023-02-03T00:36:12;7.30;;;2.00;;
59938;SDS011;45801;51.810;19.444;2023-02-03T00:38:39;5.10;;;1.90;;
59938;SDS011;45801;51.810;19.444;2023-02-03T00:41:06;6.20;;;2.20;;
59938;SDS011;45801;51.810;19.444;2023-02-03T00:43:35;7.10;;;1.90;;
59938;SDS011;45801;51.810;19.444;2023-02-03T00:46:10;6.50;;;2.00;;
59938;SDS011;45801;51.810;19.444;2023-02-03T00:48:37;6.10;;;2.20;;
59938;SDS011;45801;51.810;19.444;2023-02-03T00:51:04;6.40;;;2.20;;
59938;SDS011;45801;51.810;19.444;2023-02-03T00:53:30;6.60;;;2.30;;
59938;SDS011;45801;51.810;19.444;2023-02-03T00:55:57;6.30;;;2.20;;
59938;SDS011;45801;51.810;19.444;2023-02-03T00:58:24;5.80;;;1.90;;
59938;SDS011;45801;51.810;19.444;2023-02-03T01:00:50;6.20;;;2.20;;
59938;SDS011;45801;51.810;19.444;2023-02-03T01:03:17;6.10;;;2.00;;
59938;SDS011;45801;51.810;19.444;2023-02-03T01:05:43;6.60;;;2.10;;
59938;SDS011;45801;51.810;19.444;2023-02-03T01:08:16;7.00;;;2.20;;
59938;SDS011;45801;51.810;19.444;2023-02-03T01:10:42;6.60;;;2.00;;
59938;SDS011;45801;51.810;19.444;2023-02-03T01:13:09;5.60;;;2.30;;
59938;SDS011;45801;51.810;19.444;2023-02-03T01:15:35;6.90;;;1.90;;
59938;SDS011;45801;51.810;19.444;2023-02-03T01:18:02;6.40;;;1.70;;
59938;SDS011;45801;51.810;19.444;2023-02-03T01:20:29;4.70;;;1.60;;
59938;SDS011;45801;51.810;19.444;2023-02-03T01:22:56;5.00;;;1.40;;
59938;SDS011;45801;51.810;19.444;2023-02-03T01:25:22;4.70;;;1.40;;
59938;SDS011;45801;51.810;19.444;2023-02-03T01:27:49;7.10;;;1.80;;
59938;SDS011;45801;51.810;19.444;2023-02-03T01:30:16;4.70;;;1.40;;
59938;SDS011;45801;51.810;19.444;2023-02-03T01:32:43;4.30;;;1.00;;
59938;SDS011;45801;51.810;19.444;2023-02-03T01:35:09;4.50;;;1.50;;
59938;SDS011;45801;51.810;19.444;2023-02-03T01:37:36;3.60;;;1.30;;
59938;SDS011;45801;51.810;19.444;2023-02-03T01:40:03;2.80;;;1.10;;
59938;SDS011;45801;51.810;19.444;2023-02-03T01:42:31;4.50;;;1.50;;
59938;SDS011;45801;51.810;19.444;2023-02-03T01:44:59;4.50;;;1.40;;
59938;SDS011;45801;51.810;19.444;2023-02-03T01:47:30;3.00;;;1.20;;
59938;SDS011;45801;51.810;19.444;2023-02-03T01:49:58;6.00;;;1.90;;
59938;SDS011;45801;51.810;19.444;2023-02-03T01:52:32;4.80;;;1.70;;
59938;SDS011;45801;51.810;19.444;2023-02-03T01:55:01;5.00;;;1.60;;
59938;SDS011;45801;51.810;19.444;2023-02-03T01:57:32;6.90;;;2.10;;
59938;SDS011;45801;51.810;19.444;2023-02-03T02:00:04;6.40;;;2.40;;
59938;SDS011;45801;51.810;19.444;2023-02-03T02:02:32;7.40;;;2.00;;
59938;SDS011;45801;51.810;19.444;2023-02-03T02:05:04;6.20;;;1.90;;
59938;SDS011;45801;51.810;19.444;2023-02-03T02:07:35;7.30;;;2.10;;
59938;SDS011;45801;51.810;19.444;2023-02-03T02:10:03;6.90;;;2.40;;
59938;SDS011;45801;51.810;19.444;2023-02-03T02:12:30;5.90;;;2.40;;
59938;SDS011;45801;51.810;19.444;2023-02-03T02:14:57;6.90;;;2.00;;
59938;SDS011;45801;51.810;19.444;2023-02-03T02:17:45;7.20;;;2.50;;
59938;SDS011;45801;51.810;19.444;2023-02-03T02:20:28;6.70;;;2.20;;
59938;SDS011;45801;51.810;19.444;2023-02-03T02:34:16;6.50;;;2.30;;
59938;SDS011;45801;51.810;19.444;2023-02-03T02:42:53;6.50;;;2.40;;
59938;SDS011;45801;51.810;19.444;2023-02-03T02:51:08;6.70;;;2.70;;
59938;SDS011;45801;51.810;19.444;2023-02-03T02:53:39;8.00;;;3.50;;
59938;SDS011;45801;51.810;19.444;2023-02-03T02:56:11;6.70;;;2.70;;
59938;SDS011;45801;51.810;19.444;2023-02-03T02:58:40;8.50;;;2.90;;
59938;SDS011;45801;51.810;19.444;2023-02-03T03:01:09;6.80;;;2.60;;
59938;SDS011;45801;51.810;19.444;2023-02-03T03:03:36;6.20;;;2.30;;
59938;SDS011;45801;51.810;19.444;2023-02-03T03:06:07;6.10;;;2.30;;
59938;SDS011;45801;51.810;19.444;2023-02-03T03:08:40;6.20;;;2.10;;
59938;SDS011;45801;51.810;19.444;2023-02-03T03:11:25;5.90;;;2.10;;
59938;SDS011;45801;51.810;19.444;2023-02-03T03:13:55;6.20;;;2.00;;
59938;SDS011;45801;51.810;19.444;2023-02-03T03:16:23;6.70;;;2.40;;
59938;SDS011;45801;51.810;19.444;2023-02-03T03:18:55;6.80;;;3.00;;
59938;SDS011;45801;51.810;19.444;2023-02-03T03:21:31;5.40;;;2.40;;
59938;SDS011;45801;51.810;19.444;2023-02-03T03:24:04;6.30;;;2.40;;
59938;SDS011;45801;51.810;19.444;2023-02-03T03:29:50;6.50;;;2.40;;
59938;SDS011;45801;51.810;19.444;2023-02-03T03:32:00;7.80;;;2.80;;
59938;SDS011;45801;51.810;19.444;2023-02-03T03:34:28;7.30;;;2.60;;
59938;SDS011;45801;51.810;19.444;2023-02-03T03:37:00;7.50;;;2.70;;
59938;SDS011;45801;51.810;19.444;2023-02-03T03:39:44;10.10;;;3.60;;
59938;SDS011;45801;51.810;19.444;2023-02-03T03:42:25;7.80;;;3.00;;
59938;SDS011;45801;51.810;19.444;2023-02-03T03:44:57;7.80;;;3.60;;
59938;SDS011;45801;51.810;19.444;2023-02-03T03:47:30;8.60;;;2.90;;
59938;SDS011;45801;51.810;19.444;2023-02-03T03:50:01;8.40;;;3.30;;
59938;SDS011;45801;51.810;19.444;2023-02-03T03:52:31;8.10;;;3.50;;
59938;SDS011;45801;51.810;19.444;2023-02-03T03:55:02;8.30;;;3.30;;
59938;SDS011;45801;51.810;19.444;2023-02-03T03:57:35;8.40;;;3.80;;
59938;SDS011;45801;51.810;19.444;2023-02-03T04:00:11;7.50;;;3.50;;
59938;SDS011;45801;51.810;19.444;2023-02-03T04:02:43;8.90;;;4.00;;
59938;SDS011;45801;51.810;19.444;2023-02-03T04:05:16;8.90;;;4.00;;
59938;SDS011;45801;51.810;19.444;2023-02-03T04:07:44;9.40;;;4.10;;
59938;SDS011;45801;51.810;19.444;2023-02-03T04:12:45;9.80;;;3.60;;
59938;SDS011;45801;51.810;19.444;2023-02-03T04:15:11;10.50;;;5.80;;
59938;SDS011;45801;51.810;19.444;2023-02-03T04:17:38;10.90;;;4.70;;
59938;SDS011;45801;51.810;19.444;2023-02-03T04:20:04;10.20;;;4.80;;
59938;SDS011;45801;51.810;19.444;2023-02-03T04:22:31;11.80;;;5.30;;
59938;SDS011;45801;51.810;19.444;2023-02-03T04:27:27;10.60;;;4.80;;
59938;SDS011;45801;51.810;19.444;2023-02-03T04:29:54;13.00;;;5.10;;
59938;SDS011;45801;51.810;19.444;2023-02-03T04:32:20;10.80;;;5.30;;
59938;SDS011;45801;51.810;19.444;2023-02-03T04:34:47;10.70;;;5.20;;
59938;SDS011;45801;51.810;19.444;2023-02-03T04:37:13;11.70;;;5.20;;
59938;SDS011;45801;51.810;19.444;2023-02-03T04:39:40;10.30;;;5.00;;
59938;SDS011;45801;51.810;19.444;2023-02-03T04:42:06;12.10;;;5.40;;
59938;SDS011;45801;51.810;19.444;2023-02-03T04:44:33;11.20;;;5.20;;
59938;SDS011;45801;51.810;19.444;2023-02-03T04:46:59;11.30;;;5.60;;
59938;SDS011;45801;51.810;19.444;2023-02-03T04:49:26;11.80;;;5.70;;
59938;SDS011;45801;51.810;19.444;2023-02-03T04:51:52;13.80;;;6.10;;
59938;SDS011;45801;51.810;19.444;2023-02-03T04:54:18;15.70;;;7.10;;
59938;SDS011;45801;51.810;19.444;2023-02-03T04:56:45;9.40;;;4.80;;
59938;SDS011;45801;51.810;19.444;2023-02-03T04:59:11;11.90;;;6.00;;
59938;SDS011;45801;51.810;19.444;2023-02-03T05:01:38;12.70;;;6.60;;
59938;SDS011;45801;51.810;19.444;2023-02-03T05:04:04;11.80;;;5.60;;
59938;SDS011;45801;51.810;19.444;2023-02-03T05:06:32;12.20;;;5.20;;
59938;SDS011;45801;51.810;19.444;2023-02-03T05:08:59;12.80;;;5.40;;
59938;SDS011;45801;51.810;19.444;2023-02-03T05:11:26;11.20;;;4.80;;
59938;SDS011;45801;51.810;19.444;2023-02-03T05:13:52;11.10;;;4.70;;
59938;SDS011;45801;51.810;19.444;2023-02-03T05:16:19;10.10;;;5.30;;
59938;SDS011;45801;51.810;19.444;2023-02-03T05:18:46;10.30;;;4.60;;
59938;SDS011;45801;51.810;19.444;2023-02-03T05:21:12;10.60;;;5.30;;
59938;SDS011;45801;51.810;19.444;2023-02-03T05:23:39;10.00;;;5.10;;
59938;SDS011;45801;51.810;19.444;2023-02-03T05:26:05;10.10;;;5.40;;
59938;SDS011;45801;51.810;19.444;2023-02-03T05:28:32;10.80;;;5.10;;
59938;SDS011;45801;51.810;19.444;2023-02-03T05:30:59;10.30;;;6.00;;
59938;SDS011;45801;51.810;19.444;2023-02-03T05:33:27;11.60;;;6.30;;
59938;SDS011;45801;51.810;19.444;2023-02-03T05:35:54;11.70;;;5.60;;
59938;SDS011;45801;51.810;19.444;2023-02-03T05:38:21;11.20;;;5.90;;
59938;SDS011;45801;51.810;19.444;2023-02-03T05:40:48;11.60;;;5.60;;
59938;SDS011;45801;51.810;19.444;2023-02-03T05:43:35;10.80;;;6.20;;
59938;SDS011;45801;51.810;19.444;2023-02-03T05:46:02;14.40;;;5.90;;
59938;SDS011;45801;51.810;19.444;2023-02-03T05:48:31;11.30;;;5.90;;
59938;SDS011;45801;51.810;19.444;2023-02-03T05:50:58;11.00;;;5.30;;
59938;SDS011;45801;51.810;19.444;2023-02-03T05:53:25;12.30;;;6.00;;
59938;SDS011;45801;51.810;19.444;2023-02-03T05:55:53;11.80;;;5.80;;
59938;SDS011;45801;51.810;19.444;2023-02-03T05:58:20;10.90;;;5.60;;
59938;SDS011;45801;51.810;19.444;2023-02-03T06:00:46;17.10;;;6.80;;
59938;SDS011;45801;51.810;19.444;2023-02-03T06:03:13;12.90;;;6.20;;
59938;SDS011;45801;51.810;19.444;2023-02-03T06:05:40;11.60;;;5.70;;
59938;SDS011;45801;51.810;19.444;2023-02-03T06:08:08;12.60;;;6.20;;
59938;SDS011;45801;51.810;19.444;2023-02-03T06:10:35;13.20;;;5.30;;
59938;SDS011;45801;51.810;19.444;2023-02-03T06:13:09;14.20;;;6.80;;
59938;SDS011;45801;51.810;19.444;2023-02-03T06:15:36;13.00;;;6.20;;
59938;SDS011;45801;51.810;19.444;2023-02-03T06:18:03;13.60;;;6.00;;
59938;SDS011;45801;51.810;19.444;2023-02-03T06:20:29;13.60;;;6.80;;
59938;SDS011;45801;51.810;19.444;2023-02-03T06:22:56;13.10;;;6.90;;
59938;SDS011;45801;51.810;19.444;2023-02-03T06:25:22;13.40;;;6.80;;
59938;SDS011;45801;51.810;19.444;2023-02-03T06:27:49;14.00;;;6.40;;
59938;SDS011;45801;51.810;19.444;2023-02-03T06:30:16;13.10;;;5.60;;
59938;SDS011;45801;51.810;19.444;2023-02-03T06:32:43;12.50;;;5.40;;
59938;SDS011;45801;51.810;19.444;2023-02-03T06:35:10;10.80;;;4.90;;
59938;SDS011;45801;51.810;19.444;2023-02-03T06:37:36;14.00;;;5.50;;
59938;SDS011;45801;51.810;19.444;2023-02-03T06:40:03;10.00;;;5.00;;
59938;SDS011;45801;51.810;19.444;2023-02-03T06:42:30;11.70;;;5.20;;
59938;SDS011;45801;51.810;19.444;2023-02-03T06:44:57;14.20;;;6.20;;
59938;SDS011;45801;51.810;19.444;2023-02-03T06:47:23;12.00;;;5.20;;
59938;SDS011;45801;51.810;19.444;2023-02-03T06:49:50;10.80;;;5.10;;
59938;SDS011;45801;51.810;19.444;2023-02-03T06:52:17;12.60;;;6.00;;
59938;SDS011;45801;51.810;19.444;2023-02-03T06:54:44;12.40;;;5.60;;
59938;SDS011;45801;51.810;19.444;2023-02-03T06:57:10;13.40;;;6.40;;
59938;SDS011;45801;51.810;19.444;2023-02-03T06:59:37;10.30;;;5.40;;
59938;SDS011;45801;51.810;19.444;2023-02-03T07:02:03;12.80;;;6.10;;
59938;SDS011;45801;51.810;19.444;2023-02-03T07:04:30;13.60;;;6.20;;
59938;SDS011;45801;51.810;19.444;2023-02-03T07:06:56;13.10;;;6.60;;
59938;SDS011;45801;51.810;19.444;2023-02-03T07:09:23;10.00;;;5.00;;
59938;SDS011;45801;51.810;19.444;2023-02-03T07:11:49;13.10;;;5.80;;
59938;SDS011;45801;51.810;19.444;2023-02-03T07:14:16;10.80;;;5.80;;
59938;SDS011;45801;51.810;19.444;2023-02-03T07:16:42;10.80;;;5.40;;
59938;SDS011;45801;51.810;19.444;2023-02-03T07:19:09;11.00;;;4.90;;
59938;SDS011;45801;51.810;19.444;2023-02-03T07:21:35;11.10;;;4.60;;
59938;SDS011;45801;51.810;19.444;2023-02-03T07:24:02;10.80;;;4.30;;
59938;SDS011;45801;51.810;19.444;2023-02-03T07:26:28;10.50;;;5.50;;
59938;SDS011;45801;51.810;19.444;2023-02-03T07:28:55;9.80;;;4.10;;
59938;SDS011;45801;51.810;19.444;2023-02-03T07:31:23;12.00;;;5.20;;
59938;SDS011;45801;51.810;19.444;2023-02-03T07:33:50;12.40;;;5.10;;
59938;SDS011;45801;51.810;19.444;2023-02-03T07:36:16;9.90;;;4.60;;
59938;SDS011;45801;51.810;19.444;2023-02-03T07:38:43;10.50;;;4.80;;
59938;SDS011;45801;51.810;19.444;2023-02-03T07:41:09;9.90;;;4.60;;
59938;SDS011;45801;51.810;19.444;2023-02-03T07:43:35;10.10;;;5.00;;
59938;SDS011;45801;51.810;19.444;2023-02-03T07:46:02;9.80;;;4.20;;
59938;SDS011;45801;51.810;19.444;2023-02-03T07:48:29;9.60;;;4.20;;
59938;SDS011;45801;51.810;19.444;2023-02-03T07:50:55;11.00;;;4.60;;
59938;SDS011;45801;51.810;19.444;2023-02-03T07:53:21;11.20;;;4.90;;
59938;SDS011;45801;51.810;19.444;2023-02-03T07:55:48;8.70;;;3.90;;
59938;SDS011;45801;51.810;19.444;2023-02-03T07:58:14;11.70;;;4.50;;
59938;SDS011;45801;51.810;19.444;2023-02-03T08:00:42;9.60;;;4.30;;
59938;SDS011;45801;51.810;19.444;2023-02-03T08:03:08;10.30;;;4.40;;
59938;SDS011;45801;51.810;19.444;2023-02-03T08:05:35;8.70;;;4.20;;
59938;SDS011;45801;51.810;19.444;2023-02-03T08:08:02;9.40;;;4.30;;
59938;SDS011;45801;51.810;19.444;2023-02-03T08:10:28;9.40;;;4.60;;
59938;SDS011;45801;51.810;19.444;2023-02-03T08:12:55;10.20;;;5.10;;
59938;SDS011;45801;51.810;19.444;2023-02-03T08:15:21;10.70;;;4.30;;
59938;SDS011;45801;51.810;19.444;2023-02-03T08:17:48;8.20;;;4.10;;
59938;SDS011;45801;51.810;19.444;2023-02-03T08:20:15;8.50;;;4.20;;
59938;SDS011;45801;51.810;19.444;2023-02-03T08:22:42;9.80;;;4.70;;
59938;SDS011;45801;51.810;19.444;2023-02-03T08:25:09;10.40;;;4.20;;
59938;SDS011;45801;51.810;19.444;2023-02-03T08:27:36;9.00;;;3.90;;
59938;SDS011;45801;51.810;19.444;2023-02-03T08:30:04;8.50;;;4.10;;
59938;SDS011;45801;51.810;19.444;2023-02-03T08:32:32;10.80;;;4.70;;
59938;SDS011;45801;51.810;19.444;2023-02-03T08:34:59;11.10;;;4.70;;
59938;SDS011;45801;51.810;19.444;2023-02-03T08:37:25;9.10;;;4.50;;
59938;SDS011;45801;51.810;19.444;2023-02-03T08:39:53;10.90;;;5.20;;
59938;SDS011;45801;51.810;19.444;2023-02-03T08:42:19;11.90;;;5.40;;
59938;SDS011;45801;51.810;19.444;2023-02-03T08:44:46;11.00;;;5.30;;
59938;SDS011;45801;51.810;19.444;2023-02-03T08:47:14;9.30;;;4.50;;
59938;SDS011;45801;51.810;19.444;2023-02-03T08:49:41;10.60;;;4.90;;
59938;SDS011;45801;51.810;19.444;2023-02-03T08:52:09;10.20;;;4.10;;
59938;SDS011;45801;51.810;19.444;2023-02-03T08:54:37;11.90;;;4.50;;
59938;SDS011;45801;51.810;19.444;2023-02-03T08:57:04;10.70;;;4.10;;
59938;SDS011;45801;51.810;19.444;2023-02-03T08:59:31;11.00;;;6.30;;
59938;SDS011;45801;51.810;19.444;2023-02-03T09:02:02;10.70;;;4.50;;
59938;SDS011;45801;51.810;19.444;2023-02-03T09:04:29;11.50;;;4.70;;
59938;SDS011;45801;51.810;19.444;2023-02-03T09:06:58;11.00;;;4.90;;
59938;SDS011;45801;51.810;19.444;2023-02-03T09:09:27;9.20;;;4.90;;
59938;SDS011;45801;51.810;19.444;2023-02-03T09:11:54;10.20;;;5.20;;
59938;SDS011;45801;51.810;19.444;2023-02-03T09:14:30;9.20;;;4.50;;
59938;SDS011;45801;51.810;19.444;2023-02-03T09:16:59;11.90;;;5.50;;
59938;SDS011;45801;51.810;19.444;2023-02-03T09:19:26;9.80;;;4.60;;
59938;SDS011;45801;51.810;19.444;2023-02-03T09:21:53;13.10;;;5.60;;
59938;SDS011;45801;51.810;19.444;2023-02-03T09:24:19;11.80;;;5.00;;
59938;SDS011;45801;51.810;19.444;2023-02-03T09:26:47;10.40;;;4.90;;
59938;SDS011;45801;51.810;19.444;2023-02-03T09:29:14;13.00;;;5.80;;
59938;SDS011;45801;51.810;19.444;2023-02-03T09:31:40;11.80;;;6.10;;
59938;SDS011;45801;51.810;19.444;2023-02-03T09:34:07;10.60;;;4.80;;
59938;SDS011;45801;51.810;19.444;2023-02-03T09:36:33;10.60;;;4.70;;
59938;SDS011;45801;51.810;19.444;2023-02-03T09:39:00;12.30;;;4.60;;
59938;SDS011;45801;51.810;19.444;2023-02-03T09:47:03;12.20;;;5.10;;
59938;SDS011;45801;51.810;19.444;2023-02-03T09:52:19;12.40;;;5.10;;
59938;SDS011;45801;51.810;19.444;2023-02-03T10:00:41;10.90;;;4.60;;
59938;SDS011;45801;51.810;19.444;2023-02-03T10:08:46;11.80;;;5.10;;
59938;SDS011;45801;51.810;19.444;2023-02-03T10:11:47;10.20;;;5.10;;
59938;SDS011;45801;51.810;19.444;2023-02-03T10:22:41;11.70;;;6.20;;
59938;SDS011;45801;51.810;19.444;2023-02-03T10:27:43;10.60;;;5.20;;
59938;SDS011;45801;51.810;19.444;2023-02-03T10:30:16;9.70;;;4.30;;
59938;SDS011;45801;51.810;19.444;2023-02-03T10:33:25;8.10;;;4.30;;
59938;SDS011;45801;51.810;19.444;2023-02-03T10:38:23;9.90;;;4.00;;
59938;SDS011;45801;51.810;19.444;2023-02-03T10:40:58;9.80;;;4.60;;
59938;SDS011;45801;51.810;19.444;2023-02-03T10:43:25;9.10;;;4.10;;
59938;SDS011;45801;51.810;19.444;2023-02-03T10:46:14;11.00;;;4.90;;
59938;SDS011;45801;51.810;19.444;2023-02-03T10:48:41;10.10;;;4.80;;
59938;SDS011;45801;51.810;19.444;2023-02-03T10:51:11;9.00;;;4.80;;
59938;SDS011;45801;51.810;19.444;2023-02-03T10:53:47;14.10;;;5.50;;
59938;SDS011;45801;51.810;19.444;2023-02-03T10:59:03;13.20;;;4.80;;
59938;SDS011;45801;51.810;19.444;2023-02-03T11:01:46;9.20;;;4.10;;
59938;SDS011;45801;51.810;19.444;2023-02-03T11:06:58;12.40;;;4.70;;
59938;SDS011;45801;51.810;19.444;2023-02-03T11:12:06;7.20;;;4.00;;
59938;SDS011;45801;51.810;19.444;2023-02-03T11:14:39;8.10;;;3.50;;
59938;SDS011;45801;51.810;19.444;2023-02-03T11:17:17;8.70;;;4.10;;
59938;SDS011;45801;51.810;19.444;2023-02-03T11:19:49;8.20;;;3.90;;
59938;SDS011;45801;51.810;19.444;2023-02-03T11:24:53;8.40;;;3.50;;
59938;SDS011;45801;51.810;19.444;2023-02-03T11:27:21;8.70;;;3.90;;
59938;SDS011;45801;51.810;19.444;2023-02-03T11:29:50;9.60;;;4.10;;
59938;SDS011;45801;51.810;19.444;2023-02-03T11:32:35;8.90;;;4.00;;
59938;SDS011;45801;51.810;19.444;2023-02-03T11:35:13;9.60;;;3.70;;
59938;SDS011;45801;51.810;19.444;2023-02-03T11:37:42;10.20;;;5.10;;
59938;SDS011;45801;51.810;19.444;2023-02-03T11:40:11;9.60;;;4.50;;
59938;SDS011;45801;51.810;19.444;2023-02-03T11:47:44;8.70;;;4.00;;
59938;SDS011;45801;51.810;19.444;2023-02-03T11:50:27;8.70;;;4.20;;
59938;SDS011;45801;51.810;19.444;2023-02-03T11:59:01;10.20;;;5.00;;
59938;SDS011;45801;51.810;19.444;2023-02-03T12:13:19;11.20;;;5.60;;
59938;SDS011;45801;51.810;19.444;2023-02-03T12:16:12;9.20;;;4.80;;
59938;SDS011;45801;51.810;19.444;2023-02-03T12:21:49;11.40;;;5.50;;
59938;SDS011;45801;51.810;19.444;2023-02-03T12:30:21;10.50;;;5.30;;
59938;SDS011;45801;51.810;19.444;2023-02-03T12:32:57;11.50;;;5.30;;
59938;SDS011;45801;51.810;19.444;2023-02-03T12:38:12;9.20;;;4.70;;
59938;SDS011;45801;51.810;19.444;2023-02-03T12:40:48;12.20;;;5.90;;
59938;SDS011;45801;51.810;19.444;2023-02-03T12:43:23;10.50;;;5.50;;
59938;SDS011;45801;51.810;19.444;2023-02-03T12:45:57;10.40;;;6.00;;
59938;SDS011;45801;51.810;19.444;2023-02-03T12:48:32;11.70;;;6.20;;
59938;SDS011;45801;51.810;19.444;2023-02-03T12:51:13;10.00;;;6.10;;
59938;SDS011;45801;51.810;19.444;2023-02-03T12:53:49;11.10;;;5.90;;
59938;SDS011;45801;51.810;19.444;2023-02-03T12:56:25;13.00;;;5.80;;
59938;SDS011;45801;51.810;19.444;2023-02-03T12:59:02;9.70;;;5.50;;
59938;SDS011;45801;51.810;19.444;2023-02-03T13:04:11;10.40;;;5.30;;
59938;SDS011;45801;51.810;19.444;2023-02-03T13:06:48;9.20;;;5.60;;
59938;SDS011;45801;51.810;19.444;2023-02-03T13:09:30;9.30;;;5.30;;
59938;SDS011;45801;51.810;19.444;2023-02-03T13:14:56;11.80;;;6.50;;
59938;SDS011;45801;51.810;19.444;2023-02-03T13:18:18;12.50;;;5.80;;
59938;SDS011;45801;51.810;19.444;2023-02-03T13:20:34;9.50;;;4.80;;
59938;SDS011;45801;51.810;19.444;2023-02-03T13:23:06;11.40;;;6.30;;
59938;SDS011;45801;51.810;19.444;2023-02-03T13:25:54;10.40;;;5.60;;
59938;SDS011;45801;51.810;19.444;2023-02-03T13:34:05;9.50;;;5.70;;
59938;SDS011;45801;51.810;19.444;2023-02-03T13:42:55;11.40;;;6.90;;
59938;SDS011;45801;51.810;19.444;2023-02-03T13:45:32;13.90;;;6.80;;
59938;SDS011;45801;51.810;19.444;2023-02-03T13:48:21;12.70;;;7.50;;
59938;SDS011;45801;51.810;19.444;2023-02-03T13:51:11;12.20;;;7.10;;
59938;SDS011;45801;51.810;19.444;2023-02-03T13:53:42;13.30;;;6.90;;
59938;SDS011;45801;51.810;19.444;2023-02-03T13:56:21;10.40;;;7.00;;
59938;SDS011;45801;51.810;19.444;2023-02-03T13:59:25;11.10;;;7.50;;
59938;SDS011;45801;51.810;19.444;2023-02-03T14:02:28;11.60;;;6.50;;
59938;SDS011;45801;51.810;19.444;2023-02-03T14:07:55;11.00;;;6.80;;
59938;SDS011;45801;51.810;19.444;2023-02-03T14:12:33;12.60;;;6.90;;
59938;SDS011;45801;51.810;19.444;2023-02-03T14:18:03;11.60;;;7.00;;
59938;SDS011;45801;51.810;19.444;2023-02-03T14:20:49;11.90;;;6.60;;
59938;SDS011;45801;51.810;19.444;2023-02-03T14:23:26;11.50;;;6.80;;
59938;SDS011;45801;51.810;19.444;2023-02-03T14:26:02;10.80;;;6.60;;
59938;SDS011;45801;51.810;19.444;2023-02-03T14:28:39;10.80;;;6.30;;
59938;SDS011;45801;51.810;19.444;2023-02-03T14:31:09;11.70;;;6.10;;
59938;SDS011;45801;51.810;19.444;2023-02-03T14:36:27;11.40;;;6.10;;
59938;SDS011;45801;51.810;19.444;2023-02-03T14:44:38;10.20;;;5.90;;
59938;SDS011;45801;51.810;19.444;2023-02-03T14:47:34;10.70;;;5.70;;
59938;SDS011;45801;51.810;19.444;2023-02-03T14:51:18;9.80;;;5.50;;
59938;SDS011;45801;51.810;19.444;2023-02-03T14:56:42;9.90;;;5.10;;
59938;SDS011;45801;51.810;19.444;2023-02-03T14:59:41;9.20;;;5.00;;
59938;SDS011;45801;51.810;19.444;2023-02-03T15:02:13;9.10;;;4.90;;
59938;SDS011;45801;51.810;19.444;2023-02-03T15:04:42;11.20;;;5.80;;
59938;SDS011;45801;51.810;19.444;2023-02-03T15:10:18;10.20;;;4.60;;
59938;SDS011;45801;51.810;19.444;2023-02-03T15:12:56;8.20;;;4.50;;
59938;SDS011;45801;51.810;19.444;2023-02-03T15:15:27;11.60;;;6.10;;
59938;SDS011;45801;51.810;19.444;2023-02-03T15:17:56;10.60;;;6.40;;
59938;SDS011;45801;51.810;19.444;2023-02-03T15:20:37;9.90;;;6.10;;
59938;SDS011;45801;51.810;19.444;2023-02-03T15:25:46;10.90;;;6.60;;
59938;SDS011;45801;51.810;19.444;2023-02-03T15:28:19;10.90;;;6.40;;
59938;SDS011;45801;51.810;19.444;2023-02-03T15:33:22;9.80;;;5.30;;
59938;SDS011;45801;51.810;19.444;2023-02-03T15:35:51;9.60;;;5.50;;
59938;SDS011;45801;51.810;19.444;2023-02-03T15:38:28;10.70;;;6.60;;
59938;SDS011;45801;51.810;19.444;2023-02-03T15:40:58;11.00;;;7.30;;
59938;SDS011;45801;51.810;19.444;2023-02-03T15:43:37;10.40;;;6.20;;
59938;SDS011;45801;51.810;19.444;2023-02-03T15:51:38;10.40;;;6.60;;
59938;SDS011;45801;51.810;19.444;2023-02-03T15:56:43;11.70;;;6.50;;
59938;SDS011;45801;51.810;19.444;2023-02-03T15:59:21;13.00;;;8.20;;
59938;SDS011;45801;51.810;19.444;2023-02-03T16:01:48;11.30;;;7.00;;
59938;SDS011;45801;51.810;19.444;2023-02-03T16:04:15;11.10;;;6.40;;
59938;SDS011;45801;51.810;19.444;2023-02-03T16:06:44;11.50;;;6.70;;
59938;SDS011;45801;51.810;19.444;2023-02-03T16:09:32;12.10;;;7.50;;
59938;SDS011;45801;51.810;19.444;2023-02-03T16:14:36;14.50;;;8.10;;
59938;SDS011;45801;51.810;19.444;2023-02-03T16:17:02;13.30;;;7.50;;
59938;SDS011;45801;51.810;19.444;2023-02-03T16:19:29;13.90;;;7.80;;
59938;SDS011;45801;51.810;19.444;2023-02-03T16:22:03;14.30;;;7.20;;
59938;SDS011;45801;51.810;19.444;2023-02-03T16:36:01;14.00;;;7.70;;
59938;SDS011;45801;51.810;19.444;2023-02-03T16:38:54;15.80;;;7.80;;
59938;SDS011;45801;51.810;19.444;2023-02-03T16:41:41;16.60;;;8.40;;
59938;SDS011;45801;51.810;19.444;2023-02-03T16:44:26;20.50;;;10.30;;
59938;SDS011;45801;51.810;19.444;2023-02-03T16:47:22;18.00;;;9.20;;
59938;SDS011;45801;51.810;19.444;2023-02-03T16:50:18;13.40;;;7.70;;
59938;SDS011;45801;51.810;19.444;2023-02-03T16:53:10;16.00;;;7.40;;
59938;SDS011;45801;51.810;19.444;2023-02-03T16:55:38;15.60;;;6.80;;
59938;SDS011;45801;51.810;19.444;2023-02-03T16:58:05;16.30;;;7.20;;
59938;SDS011;45801;51.810;19.444;2023-02-03T17:00:31;12.80;;;5.90;;
59938;SDS011;45801;51.810;19.444;2023-02-03T17:03:02;15.60;;;7.20;;
59938;SDS011;45801;51.810;19.444;2023-02-03T17:05:30;13.30;;;6.10;;
59938;SDS011;45801;51.810;19.444;2023-02-03T17:07:57;15.40;;;7.00;;
59938;SDS011;45801;51.810;19.444;2023-02-03T17:10:23;14.10;;;6.20;;
59938;SDS011;45801;51.810;19.444;2023-02-03T17:12:50;18.10;;;5.90;;
59938;SDS011;45801;51.810;19.444;2023-02-03T17:15:18;14.20;;;6.40;;
59938;SDS011;45801;51.810;19.444;2023-02-03T17:17:44;14.30;;;6.00;;
59938;SDS011;45801;51.810;19.444;2023-02-03T17:20:11;14.30;;;6.30;;
59938;SDS011;45801;51.810;19.444;2023-02-03T17:22:38;18.00;;;6.20;;
59938;SDS011;45801;51.810;19.444;2023-02-03T17:25:04;15.00;;;6.70;;
59938;SDS011;45801;51.810;19.444;2023-02-03T17:27:31;15.80;;;5.60;;
59938;SDS011;45801;51.810;19.444;2023-02-03T17:29:58;13.90;;;6.10;;
59938;SDS011;45801;51.810;19.444;2023-02-03T17:32:25;17.90;;;6.10;;
59938;SDS011;45801;51.810;19.444;2023-02-03T17:34:53;11.40;;;4.80;;
59938;SDS011;45801;51.810;19.444;2023-02-03T17:37:19;12.70;;;5.50;;
59938;SDS011;45801;51.810;19.444;2023-02-03T17:39:46;14.90;;;4.70;;
59938;SDS011;45801;51.810;19.444;2023-02-03T17:42:12;13.60;;;4.10;;
59938;SDS011;45801;51.810;19.444;2023-02-03T17:44:39;14.70;;;4.80;;
59938;SDS011;45801;51.810;19.444;2023-02-03T17:47:05;14.40;;;5.10;;